Weather at Treasure Cay Airport

Public forecast

Using degrees Celsius for public forecast. Weather courtesy of forecast.io.

Closest aviation weather report (METAR) to Treasure Cay Airport

Closest report is Grand Bahama International Airport, 70.9 nm (131.3 km) W.

2024/04/25 12:00 (retrieved 19 minutes ago)

MYGF 251200Z 06005KT 9999 FEW020 21/16 A3014

Closest aviation forecast (TAF) to Treasure Cay Airport

Closest forecast is Grand Bahama International Airport, 70.9 nm (131.3 km) W.

2024/04/25 12:00 (retrieved 19 minutes ago)

TAF MYGF 251100Z 2512/2612 08010KT 9999 SCT050